Slavkov u Brna, Czech Republic
Current Conditions -  °F | °C
As of 2:38 AM on Wednesday 26 Nov 2014 (Local Time) from LKTB Reporting Station
Moderate Fog Moderate Fog  
Wind Chill: 26°   Ceiling: 100
Heat Index: 32°   Visibility: 0.37mi
Dew Point: 30°   Wind: 7mph
Humidity: 93%   Direction: 70°ENE
Pressure: 30.27"   Gusts: NA
Location:  49.15°N, 16.86°E
Report Text: LKTB 260038Z 07006KT 0600 R28/0700 FG VV001 00/M01 Q1025 RMKREG QNH 1020
Loading
Personal Weather Stations






























Interactive Weather Map New forecast layout! Learn more

10-Day Weather Forecast

Advertisements
Track Severe Weather on mobile